createdAt,value
2023-02-13T00:00:20.346Z,32.33
2023-02-13T00:02:47.180Z,32.33
2023-02-13T00:05:13.942Z,33.30
2023-02-13T00:07:41.058Z,32.67
2023-02-13T00:10:08.260Z,31.33
2023-02-13T00:12:34.997Z,32.60
2023-02-13T00:15:01.747Z,35.17
2023-02-13T00:17:28.310Z,35.33
2023-02-13T00:19:54.889Z,34.80
2023-02-13T00:22:21.444Z,36.10
2023-02-13T00:24:48.042Z,39.87
2023-02-13T00:27:14.585Z,34.80
2023-02-13T00:29:41.228Z,35.87
2023-02-13T00:32:08.040Z,42.43
2023-02-13T00:34:34.752Z,37.23
2023-02-13T00:37:01.321Z,35.43
2023-02-13T00:39:28.008Z,44.57
2023-02-13T00:41:54.526Z,44.27
2023-02-13T00:44:21.072Z,37.67
2023-02-13T00:46:47.838Z,39.47
2023-02-13T00:49:14.450Z,38.57
2023-02-13T00:51:41.024Z,48.43
2023-02-13T00:54:07.724Z,35.60
2023-02-13T00:56:34.355Z,43.53
2023-02-13T00:59:00.919Z,36.60
2023-02-13T01:01:27.526Z,35.43
2023-02-13T01:03:54.201Z,35.03
2023-02-13T01:06:20.970Z,34.33
2023-02-13T01:08:47.563Z,35.73
2023-02-13T01:11:14.166Z,33.37
2023-02-13T01:13:40.727Z,36.03
2023-02-13T01:16:07.981Z,34.10
2023-02-13T01:18:34.532Z,34.00
2023-02-13T01:21:04.734Z,33.07
2023-02-13T01:23:32.769Z,34.23
2023-02-13T01:26:00.219Z,33.70
2023-02-13T01:28:27.737Z,34.20
2023-02-13T01:30:56.129Z,38.50
2023-02-13T01:33:24.426Z,47.13
2023-02-13T01:35:51.695Z,37.07
2023-02-13T01:38:18.653Z,37.87
2023-02-13T01:40:53.705Z,41.23
2023-02-13T01:43:23.564Z,58.80
2023-02-13T01:45:54.503Z,62.67
2023-02-13T01:48:27.521Z,72.00
2023-02-13T01:51:00.101Z,86.40
2023-02-13T01:53:38.213Z,68.07
2023-02-13T01:56:13.773Z,63.80
2023-02-13T01:58:43.669Z,72.43
2023-02-13T02:01:11.280Z,69.37
2023-02-13T02:03:43.662Z,62.37
2023-02-13T02:06:17.494Z,75.30
2023-02-13T02:08:45.723Z,76.77
2023-02-13T02:11:22.861Z,68.07
2023-02-13T02:13:50.452Z,44.70
2023-02-13T02:16:17.094Z,44.07
2023-02-13T02:18:43.743Z,53.83
2023-02-13T02:21:10.245Z,46.73
2023-02-13T02:23:55.737Z,36.27
2023-02-13T02:26:52.937Z,39.50
2023-02-13T02:29:44.475Z,38.30
2023-02-13T02:32:33.827Z,38.50
2023-02-13T02:35:09.152Z,30.50
2023-02-13T02:38:09.997Z,34.17
2023-02-13T02:40:49.669Z,31.57
2023-02-13T02:43:19.198Z,33.70
2023-02-13T02:45:54.121Z,32.20
2023-02-13T02:48:51.736Z,32.20
2023-02-13T02:51:33.569Z,31.93
2023-02-13T02:54:37.012Z,36.13
2023-02-13T02:57:15.372Z,62.57
2023-02-13T03:00:02.321Z,53.37
2023-02-13T03:02:49.440Z,56.83
2023-02-13T03:05:40.798Z,52.50
2023-02-13T03:08:07.468Z,52.33
2023-02-13T03:11:16.036Z,64.63
2023-02-13T03:13:47.387Z,71.40
2023-02-13T03:16:37.963Z,68.23
2023-02-13T03:19:23.611Z,68.27
2023-02-13T03:22:15.805Z,62.73
2023-02-13T03:25:07.909Z,69.67
2023-02-13T03:28:11.813Z,65.30
2023-02-13T03:31:09.339Z,64.30
2023-02-13T03:33:51.164Z,59.10
2023-02-13T03:36:55.216Z,61.13
2023-02-13T03:39:40.487Z,54.90
2023-02-13T03:42:14.893Z,46.80
2023-02-13T03:45:09.792Z,52.80
2023-02-13T03:47:38.492Z,54.70
2023-02-13T03:50:09.103Z,47.00
2023-02-13T03:52:53.368Z,42.53
2023-02-13T03:55:47.027Z,44.70
2023-02-13T03:58:44.673Z,32.67
2023-02-13T04:01:15.479Z,46.50
2023-02-13T04:03:49.196Z,36.53
2023-02-13T04:06:25.310Z,34.37
2023-02-13T04:08:51.950Z,29.00
2023-02-13T04:11:33.265Z,30.97
2023-02-13T04:14:02.883Z,29.10
2023-02-13T04:17:03.598Z,40.40
2023-02-13T04:19:32.567Z,35.33
2023-02-13T04:22:01.254Z,32.83
2023-02-13T04:24:28.256Z,33.40
2023-02-13T04:26:55.682Z,36.47
2023-02-13T04:29:23.796Z,29.50
2023-02-13T04:31:50.508Z,32.13
2023-02-13T04:34:17.244Z,33.57
2023-02-13T04:36:44.148Z,29.10
2023-02-13T04:39:11.919Z,29.80
2023-02-13T04:41:38.517Z,29.37
2023-02-13T04:44:05.193Z,30.53
2023-02-13T04:46:31.781Z,30.43
2023-02-13T04:48:58.364Z,31.83
2023-02-13T04:51:24.895Z,29.93
2023-02-13T04:53:51.548Z,29.07
2023-02-13T04:56:19.848Z,29.97
2023-02-13T04:58:46.588Z,28.33
2023-02-13T05:01:14.558Z,28.07
2023-02-13T05:03:41.265Z,29.03
2023-02-13T05:06:08.212Z,29.87
2023-02-13T05:08:35.464Z,37.83
2023-02-13T05:11:02.029Z,34.03
2023-02-13T05:13:28.619Z,29.63
2023-02-13T05:15:55.383Z,28.47
2023-02-13T05:18:22.020Z,28.77
2023-02-13T05:21:08.631Z,29.73
2023-02-13T05:23:35.388Z,33.43
2023-02-13T05:26:02.316Z,34.67
2023-02-13T05:28:47.167Z,34.37
2023-02-13T05:31:13.848Z,29.80
2023-02-13T05:33:40.662Z,27.43
2023-02-13T05:36:07.933Z,33.30
2023-02-13T05:38:34.522Z,35.27
2023-02-13T05:41:01.450Z,36.10
2023-02-13T05:43:29.026Z,31.33
2023-02-13T05:46:03.397Z,42.77
2023-02-13T05:48:30.266Z,36.73
2023-02-13T05:50:57.183Z,35.73
2023-02-13T05:53:24.176Z,30.83
2023-02-13T05:55:52.419Z,34.17
2023-02-13T05:58:20.319Z,37.67
2023-02-13T06:00:47.975Z,41.90
2023-02-13T06:03:15.255Z,33.63
2023-02-13T06:05:41.842Z,46.97
2023-02-13T06:08:08.463Z,38.67
2023-02-13T06:10:35.015Z,43.17
2023-02-13T06:13:01.607Z,47.30
2023-02-13T06:15:28.286Z,51.03
2023-02-13T06:17:54.945Z,58.47
2023-02-13T06:20:21.630Z,51.70
2023-02-13T06:22:50.193Z,48.40
2023-02-13T06:25:16.902Z,44.73
2023-02-13T06:27:43.528Z,28.07
2023-02-13T06:30:10.946Z,31.00
2023-02-13T06:32:37.484Z,29.37
2023-02-13T06:35:05.660Z,27.77
2023-02-13T06:37:32.464Z,27.23
2023-02-13T06:39:59.037Z,29.30
2023-02-13T06:42:25.740Z,29.07
2023-02-13T06:44:52.285Z,28.50
2023-02-13T06:47:18.934Z,28.93
2023-02-13T06:49:45.476Z,29.23
2023-02-13T06:52:12.021Z,34.13
2023-02-13T06:54:47.320Z,39.93
2023-02-13T06:57:15.314Z,33.47
2023-02-13T06:59:42.737Z,32.73
2023-02-13T07:02:11.008Z,30.70
2023-02-13T07:04:37.668Z,31.97
2023-02-13T07:07:04.806Z,27.77
2023-02-13T07:09:32.566Z,32.50
2023-02-13T07:11:59.176Z,29.13
2023-02-13T07:14:25.715Z,30.43
2023-02-13T07:16:52.334Z,29.53
2023-02-13T07:19:19.022Z,28.70
2023-02-13T07:21:45.570Z,28.77
2023-02-13T07:24:12.140Z,30.10
2023-02-13T07:26:38.647Z,29.23
2023-02-13T07:29:11.606Z,28.77
2023-02-13T07:31:39.963Z,28.20
2023-02-13T07:34:07.147Z,29.07
2023-02-13T07:36:34.180Z,28.23
2023-02-13T07:39:00.755Z,26.27
2023-02-13T07:41:27.309Z,27.90
2023-02-13T07:43:54.878Z,27.17
2023-02-13T07:46:21.516Z,26.57
2023-02-13T07:48:49.012Z,26.33
2023-02-13T07:51:16.459Z,26.33
2023-02-13T07:53:43.065Z,26.17
2023-02-13T07:56:11.295Z,26.00
2023-02-13T07:58:38.466Z,24.60
2023-02-13T08:01:12.883Z,24.73
2023-02-13T08:03:39.841Z,26.07
2023-02-13T08:06:07.288Z,24.83
2023-02-13T08:08:34.151Z,24.27
2023-02-13T08:11:25.698Z,24.57
2023-02-13T08:13:52.283Z,22.67
2023-02-13T08:16:18.921Z,24.57
2023-02-13T08:18:46.833Z,24.13
2023-02-13T08:21:15.300Z,23.23
2023-02-13T08:23:41.950Z,20.70
2023-02-13T08:26:08.644Z,21.90
2023-02-13T08:28:35.251Z,19.87
2023-02-13T08:31:01.924Z,21.70
2023-02-13T08:33:28.533Z,20.15
2023-02-13T08:35:55.294Z,19.60
2023-02-13T08:38:22.027Z,18.97
2023-02-13T08:40:48.684Z,19.27
2023-02-13T08:43:15.333Z,19.80
2023-02-13T08:45:42.044Z,17.33
2023-02-13T08:48:08.762Z,17.60
2023-02-13T08:50:37.008Z,19.63
2023-02-13T08:53:04.316Z,19.73
2023-02-13T08:55:31.635Z,16.52
2023-02-13T08:58:02.656Z,16.27
2023-02-13T09:00:29.970Z,15.50
2023-02-13T09:03:01.874Z,15.00
2023-02-13T09:05:29.639Z,15.00
2023-02-13T09:07:56.412Z,23.77
2023-02-13T09:10:23.007Z,15.65
2023-02-13T09:12:53.448Z,15.35
2023-02-13T09:15:20.045Z,14.65
2023-02-13T09:17:46.704Z,15.07
2023-02-13T09:20:14.068Z,20.45
2023-02-13T09:22:41.261Z,25.85
2023-02-13T09:25:08.427Z,13.38
2023-02-13T09:27:35.862Z,12.38
2023-02-13T09:30:02.740Z,12.23
2023-02-13T09:32:29.402Z,16.85
2023-02-13T09:34:57.032Z,13.57
2023-02-13T09:37:23.626Z,13.20
2023-02-13T09:39:50.145Z,13.23
2023-02-13T09:42:31.525Z,13.50
2023-02-13T09:45:01.869Z,14.05
2023-02-13T09:47:37.339Z,13.60
2023-02-13T09:50:23.027Z,12.88
2023-02-13T09:52:52.759Z,12.10
2023-02-13T09:55:40.536Z,10.95
2023-02-13T09:58:16.388Z,10.90
2023-02-13T10:00:46.470Z,11.68
2023-02-13T10:03:23.757Z,10.68
2023-02-13T10:05:59.944Z,10.70
2023-02-13T10:08:42.568Z,10.38
2023-02-13T10:11:27.645Z,10.00
2023-02-13T10:14:00.028Z,9.65
2023-02-13T10:16:37.184Z,9.95
2023-02-13T10:19:17.046Z,9.75
2023-02-13T10:22:09.349Z,9.73
2023-02-13T10:24:42.184Z,9.45
2023-02-13T10:27:18.417Z,9.38
2023-02-13T10:30:06.880Z,10.10
2023-02-13T10:32:42.200Z,9.55
2023-02-13T10:35:30.867Z,9.60
2023-02-13T10:37:59.705Z,9.95
2023-02-13T10:40:34.970Z,10.02
2023-02-13T10:43:08.941Z,9.55
2023-02-13T10:45:57.347Z,9.75
2023-02-13T10:48:37.774Z,13.38
2023-02-13T10:51:21.773Z,10.88
2023-02-13T10:54:14.471Z,10.32
2023-02-13T10:56:47.693Z,10.80
2023-02-13T10:59:29.014Z,10.93
2023-02-13T11:02:10.802Z,10.98
2023-02-13T11:04:37.534Z,14.13
2023-02-13T11:07:11.599Z,13.05
2023-02-13T11:09:42.179Z,9.00
2023-02-13T11:12:25.864Z,10.82
2023-02-13T11:14:57.467Z,9.90
2023-02-13T11:17:25.436Z,9.63
2023-02-13T11:19:55.928Z,10.20
2023-02-13T11:22:42.800Z,10.18
2023-02-13T11:25:25.822Z,11.80
2023-02-13T11:28:10.299Z,10.23
2023-02-13T11:30:39.107Z,10.75
2023-02-13T11:33:17.892Z,9.90
2023-02-13T11:35:46.841Z,9.88
2023-02-13T11:38:16.553Z,9.73
2023-02-13T11:40:47.411Z,9.90
2023-02-13T11:43:26.549Z,10.90
2023-02-13T11:46:19.843Z,9.70
2023-02-13T11:49:00.192Z,10.73
2023-02-13T11:51:46.358Z,9.52
2023-02-13T11:54:30.707Z,9.82
2023-02-13T11:57:06.700Z,9.98
2023-02-13T11:59:40.847Z,9.32
2023-02-13T12:02:23.834Z,9.30
2023-02-13T12:05:21.342Z,11.32
2023-02-13T12:07:48.663Z,9.95
2023-02-13T12:10:15.158Z,10.68
2023-02-13T12:12:47.438Z,9.88
2023-02-13T12:15:21.086Z,10.38
2023-02-13T12:17:57.121Z,9.55
2023-02-13T12:20:27.359Z,9.60
2023-02-13T12:23:22.724Z,9.27
2023-02-13T12:25:58.367Z,9.13
2023-02-13T12:28:56.117Z,9.63
2023-02-13T12:31:46.472Z,8.90
2023-02-13T12:34:44.390Z,9.50
2023-02-13T12:37:43.001Z,8.88
2023-02-13T12:40:54.029Z,9.52
2023-02-13T12:43:33.281Z,9.48
2023-02-13T12:46:06.949Z,9.13
2023-02-13T12:48:58.707Z,9.23
2023-02-13T12:52:01.750Z,9.00
2023-02-13T12:54:48.674Z,9.48
2023-02-13T12:58:12.927Z,9.43
2023-02-13T13:00:50.616Z,9.88
2023-02-13T13:03:31.960Z,9.52
2023-02-13T13:06:19.792Z,9.95
2023-02-13T13:08:58.618Z,9.40
2023-02-13T13:12:15.772Z,9.98
2023-02-13T13:14:51.101Z,9.57
2023-02-13T13:17:26.554Z,9.88
2023-02-13T13:20:05.171Z,10.15
2023-02-13T13:23:03.837Z,10.10
2023-02-13T13:26:04.386Z,10.07
2023-02-13T13:28:47.107Z,9.82
2023-02-13T13:31:14.068Z,9.20
2023-02-13T13:33:44.168Z,9.85
2023-02-13T13:36:20.813Z,10.30
2023-02-13T13:38:56.559Z,9.93
2023-02-13T13:41:29.626Z,9.88
2023-02-13T13:44:09.351Z,9.77
2023-02-13T13:46:55.934Z,9.18
2023-02-13T13:49:35.423Z,9.95
2023-02-13T13:52:23.380Z,10.23
2023-02-13T13:54:52.620Z,8.95
2023-02-13T13:57:45.402Z,9.20
2023-02-13T14:00:14.259Z,8.68
2023-02-13T14:03:09.890Z,7.85
2023-02-13T14:05:59.346Z,9.25
2023-02-13T14:08:41.072Z,8.90
2023-02-13T14:11:46.952Z,8.70
2023-02-13T14:14:29.081Z,8.30
2023-02-13T14:17:02.086Z,8.68
2023-02-13T14:19:31.400Z,8.00
2023-02-13T14:22:19.552Z,8.02
2023-02-13T14:24:54.924Z,7.47
2023-02-13T14:27:30.834Z,7.80
2023-02-13T14:29:58.893Z,7.18
2023-02-13T14:32:33.068Z,7.60
2023-02-13T14:35:15.982Z,7.47
2023-02-13T14:37:52.835Z,7.07
2023-02-13T14:40:50.375Z,7.05
2023-02-13T14:43:30.046Z,8.25
2023-02-13T14:46:02.565Z,7.80
2023-02-13T14:48:39.635Z,7.60
2023-02-13T14:51:13.036Z,7.15
2023-02-13T14:53:51.683Z,7.13
2023-02-13T14:56:22.674Z,7.40
2023-02-13T14:59:00.662Z,7.57
2023-02-13T15:01:32.601Z,7.85
2023-02-13T15:04:11.226Z,7.45
2023-02-13T15:06:41.778Z,7.13
2023-02-13T15:09:30.419Z,7.68
2023-02-13T15:11:57.067Z,7.70
2023-02-13T15:14:30.636Z,8.48
2023-02-13T15:16:57.169Z,7.88
2023-02-13T15:19:24.836Z,7.38
2023-02-13T15:22:00.725Z,7.53
2023-02-13T15:24:34.198Z,6.78
2023-02-13T15:27:07.357Z,7.43
2023-02-13T15:29:47.808Z,7.18
2023-02-13T15:32:25.633Z,7.38
2023-02-13T15:34:52.188Z,6.32
2023-02-13T15:37:24.216Z,7.22
2023-02-13T15:39:50.844Z,6.43
2023-02-13T15:42:17.490Z,6.97
2023-02-13T15:44:50.037Z,6.88
2023-02-13T15:47:30.593Z,7.18
2023-02-13T15:49:57.766Z,6.55
2023-02-13T15:52:34.556Z,7.50
2023-02-13T15:55:01.248Z,6.85
2023-02-13T15:57:28.747Z,6.95
2023-02-13T15:59:57.259Z,6.32
2023-02-13T16:02:40.137Z,8.00
2023-02-13T16:05:26.547Z,6.20
2023-02-13T16:08:36.061Z,7.40
2023-02-13T16:11:31.972Z,7.75
2023-02-13T16:14:14.965Z,7.80
2023-02-13T16:16:59.204Z,7.28
2023-02-13T16:19:34.822Z,7.35
2023-02-13T16:22:28.584Z,7.03
2023-02-13T16:25:04.235Z,6.85
2023-02-13T16:27:31.042Z,7.88
2023-02-13T16:30:03.969Z,7.68
2023-02-13T16:32:38.841Z,7.18
2023-02-13T16:35:17.320Z,7.13
2023-02-13T16:38:02.365Z,8.25
2023-02-13T16:40:31.630Z,7.55
2023-02-13T16:43:34.511Z,7.25
2023-02-13T16:46:29.401Z,7.25
2023-02-13T16:49:02.002Z,7.40
2023-02-13T16:51:46.926Z,7.30
2023-02-13T16:54:47.928Z,8.35
2023-02-13T16:57:14.497Z,7.80
2023-02-13T16:59:46.925Z,7.70
2023-02-13T17:02:16.852Z,7.80
2023-02-13T17:04:46.739Z,7.50
2023-02-13T17:07:19.761Z,7.75
2023-02-13T17:09:53.293Z,7.60
2023-02-13T17:12:20.245Z,7.43
2023-02-13T17:14:46.860Z,8.23
2023-02-13T17:17:17.326Z,7.95
2023-02-13T17:19:44.700Z,7.70
2023-02-13T17:22:31.756Z,8.35
2023-02-13T17:25:00.267Z,8.50
2023-02-13T17:27:27.295Z,8.65
2023-02-13T17:29:54.005Z,9.20
2023-02-13T17:32:24.785Z,8.75
2023-02-13T17:34:51.628Z,8.63
2023-02-13T17:37:27.550Z,8.60
2023-02-13T17:39:54.618Z,8.90
2023-02-13T17:42:29.537Z,9.00
2023-02-13T17:44:58.130Z,8.48
2023-02-13T17:47:26.125Z,8.70
2023-02-13T17:49:59.203Z,9.30
2023-02-13T17:52:31.643Z,9.68
2023-02-13T17:54:58.206Z,9.73
2023-02-13T17:57:25.064Z,9.23
2023-02-13T17:59:51.966Z,9.63
2023-02-13T18:02:21.562Z,9.23
2023-02-13T18:04:49.232Z,9.70
2023-02-13T18:07:20.969Z,9.35
2023-02-13T18:09:47.733Z,9.50
2023-02-13T18:12:21.816Z,9.90
2023-02-13T18:14:49.046Z,9.95
2023-02-13T18:17:16.154Z,9.18
2023-02-13T18:19:42.865Z,9.25
2023-02-13T18:22:10.373Z,8.85
2023-02-13T18:24:39.277Z,8.98
2023-02-13T18:27:07.668Z,10.60
2023-02-13T18:29:37.864Z,11.25
2023-02-13T18:32:09.747Z,10.10
2023-02-13T18:34:37.483Z,9.73
2023-02-13T18:37:05.468Z,10.00
2023-02-13T18:39:32.640Z,9.57
2023-02-13T18:41:59.308Z,9.55
2023-02-13T18:44:28.738Z,10.00
2023-02-13T18:46:55.906Z,9.95
2023-02-13T18:49:22.706Z,9.80
2023-02-13T18:51:50.372Z,9.73
2023-02-13T18:54:18.065Z,9.65
2023-02-13T18:56:45.656Z,9.85
2023-02-13T18:59:12.635Z,9.07
2023-02-13T19:01:39.539Z,9.48
2023-02-13T19:04:07.257Z,12.32
2023-02-13T19:06:34.078Z,10.23
2023-02-13T19:09:00.844Z,9.85
2023-02-13T19:11:28.118Z,9.23
2023-02-13T19:13:56.498Z,9.88
2023-02-13T19:16:24.246Z,9.25
2023-02-13T19:18:54.017Z,9.77
2023-02-13T19:21:24.135Z,9.70
2023-02-13T19:23:51.668Z,9.85
2023-02-13T19:26:21.219Z,9.70
2023-02-13T19:28:48.222Z,9.80
2023-02-13T19:31:18.710Z,9.80
2023-02-13T19:33:46.311Z,9.65
2023-02-13T19:36:18.139Z,10.23
2023-02-13T19:38:46.568Z,11.00
2023-02-13T19:41:17.982Z,11.00
2023-02-13T19:43:50.877Z,9.82
2023-02-13T19:46:26.493Z,10.02
2023-02-13T19:48:54.060Z,9.60
2023-02-13T19:51:24.185Z,9.88
2023-02-13T19:53:57.081Z,10.40
2023-02-13T19:56:24.419Z,11.02
2023-02-13T19:58:51.326Z,10.15
2023-02-13T20:01:20.738Z,12.23
2023-02-13T20:03:48.012Z,13.40
2023-02-13T20:06:20.729Z,12.90
2023-02-13T20:08:47.349Z,11.38
2023-02-13T20:11:16.969Z,12.10
2023-02-13T20:13:44.037Z,11.27
2023-02-13T20:16:14.067Z,10.95
2023-02-13T20:18:41.897Z,10.23
2023-02-13T20:21:10.530Z,10.85
2023-02-13T20:23:37.322Z,10.35
2023-02-13T20:26:05.701Z,10.85
2023-02-13T20:28:32.264Z,10.82
2023-02-13T20:30:59.346Z,10.45
2023-02-13T20:33:27.254Z,11.50
2023-02-13T20:35:53.957Z,10.93
2023-02-13T20:38:20.536Z,11.40
2023-02-13T20:40:47.079Z,12.15
2023-02-13T20:43:13.609Z,11.90
2023-02-13T20:45:40.222Z,11.52
2023-02-13T20:48:06.896Z,11.48
2023-02-13T20:50:33.422Z,11.35
2023-02-13T20:53:00.110Z,11.05
2023-02-13T20:55:26.727Z,11.77
2023-02-13T20:57:53.342Z,10.60
2023-02-13T21:00:20.229Z,11.60
2023-02-13T21:02:46.871Z,11.82
2023-02-13T21:05:13.560Z,11.52
2023-02-13T21:07:40.279Z,12.40
2023-02-13T21:10:07.235Z,12.63
2023-02-13T21:12:33.784Z,11.40
2023-02-13T21:15:00.307Z,12.65
2023-02-13T21:17:26.862Z,12.90
2023-02-13T21:19:53.453Z,12.10
2023-02-13T21:22:20.011Z,11.68
2023-02-13T21:24:49.858Z,12.20
2023-02-13T21:27:16.555Z,13.10
2023-02-13T21:29:43.222Z,12.35
2023-02-13T21:32:09.875Z,12.52
2023-02-13T21:34:36.667Z,11.98
2023-02-13T21:37:03.354Z,11.77
2023-02-13T21:39:29.985Z,12.25
2023-02-13T21:41:56.565Z,12.00
2023-02-13T21:44:23.287Z,11.73
2023-02-13T21:46:50.557Z,11.98
2023-02-13T21:49:18.358Z,11.43
2023-02-13T21:51:46.856Z,11.38
2023-02-13T21:54:14.366Z,11.65
2023-02-13T21:56:42.958Z,11.88
2023-02-13T21:59:14.314Z,11.13
2023-02-13T22:01:40.901Z,11.48
2023-02-13T22:04:09.465Z,12.45
2023-02-13T22:06:38.321Z,12.45
2023-02-13T22:09:07.726Z,11.98
2023-02-13T22:11:36.082Z,12.13
2023-02-13T22:14:04.183Z,11.18
2023-02-13T22:16:33.280Z,10.73
2023-02-13T22:19:00.714Z,10.18
2023-02-13T22:21:31.326Z,10.05
2023-02-13T22:23:58.566Z,9.40
2023-02-13T22:26:28.248Z,9.68
2023-02-13T22:28:58.874Z,9.95
2023-02-13T22:31:26.103Z,9.25
2023-02-13T22:34:03.329Z,9.48
2023-02-13T22:36:31.305Z,9.50
2023-02-13T22:38:58.341Z,10.13
2023-02-13T22:41:26.908Z,10.15
2023-02-13T22:43:53.825Z,9.82
2023-02-13T22:46:25.744Z,9.48
2023-02-13T22:48:53.246Z,9.82
2023-02-13T22:51:25.648Z,9.60
2023-02-13T22:53:54.220Z,9.60
2023-02-13T22:56:20.841Z,9.70
2023-02-13T22:58:47.409Z,9.47
2023-02-13T23:01:16.604Z,10.23
2023-02-13T23:03:43.811Z,8.98
2023-02-13T23:06:12.390Z,9.07
2023-02-13T23:08:39.168Z,8.93
2023-02-13T23:11:27.249Z,8.80
2023-02-13T23:13:53.850Z,9.10
2023-02-13T23:16:20.541Z,8.65
2023-02-13T23:18:57.208Z,8.73
2023-02-13T23:21:25.135Z,8.63
2023-02-13T23:23:52.335Z,8.70
2023-02-13T23:26:19.470Z,9.10
2023-02-13T23:28:46.119Z,9.00
2023-02-13T23:31:12.784Z,9.07
2023-02-13T23:33:39.570Z,9.15
2023-02-13T23:36:06.784Z,8.40
2023-02-13T23:38:33.362Z,8.43
2023-02-13T23:41:07.814Z,8.18
2023-02-13T23:43:35.099Z,8.43
2023-02-13T23:46:06.107Z,8.68
2023-02-13T23:48:33.322Z,8.35
2023-02-13T23:51:00.948Z,7.90
2023-02-13T23:53:28.056Z,8.35
2023-02-13T23:55:55.088Z,8.52
2023-02-13T23:58:21.725Z,8.40
